Time;durP1;ratioP1;P1;durP2;ratioP2;P2;SDS_P1;SDS_P2;PMS_P1;PMS_P2;Temp;Humidity;BMP_temperature;BMP_pressure;BME280_temperature;BME280_humidity;BME280_pressure;Samples;Min_cycle;Max_cycle;Signal;HPM_P1;HPM_P2
2022/07/18 00:00:38;;;;;;;2.50;1.60;;;;;;;;;;5115238;28;20112;-81
2022/07/18 00:03:04;;;;;;;3.38;1.73;;;;;;;;;;5115609;28;20039;-80
2022/07/18 00:05:30;;;;;;;4.15;1.95;;;;;;;;;;5114400;28;20019;-84
2022/07/18 00:07:56;;;;;;;2.92;1.52;;;;;;;;;;5115744;28;20488;-82
2022/07/18 00:10:22;;;;;;;5.22;2.70;;;;;;;;;;5115478;28;20030;-84
2022/07/18 00:12:48;;;;;;;2.42;1.85;;;;;;;;;;5115150;28;20039;-79
2022/07/18 00:15:15;;;;;;;3.53;1.30;;;;;;;;;;5097114;28;20043;-81
2022/07/18 00:17:41;;;;;;;5.13;1.83;;;;;;;;;;5114896;28;20054;-80
2022/07/18 00:20:08;;;;;;;2.42;1.88;;;;;;;;;;5115252;28;20106;-81
2022/07/18 00:22:35;;;;;;;3.55;1.95;;;;;;;;;;5114755;28;20384;-83
2022/07/18 00:25:01;;;;;;;2.83;1.40;;;;;;;;;;5115013;28;20027;-80
2022/07/18 00:27:27;;;;;;;3.83;1.88;;;;;;;;;;5114995;28;20398;-79
2022/07/18 00:29:53;;;;;;;3.42;1.63;;;;;;;;;;5114630;28;20073;-80
2022/07/18 00:32:19;;;;;;;1.88;1.30;;;;;;;;;;5115058;28;20028;-82
2022/07/18 00:34:45;;;;;;;4.03;1.92;;;;;;;;;;5096376;28;20027;-82
2022/07/18 00:37:11;;;;;;;4.05;1.50;;;;;;;;;;5114900;28;20027;-82
2022/07/18 00:39:38;;;;;;;2.33;1.48;;;;;;;;;;5114469;28;20023;-80
2022/07/18 00:42:04;;;;;;;17.38;2.65;;;;;;;;;;5114755;28;20088;-81
2022/07/18 00:44:30;;;;;;;2.85;1.67;;;;;;;;;;5114738;28;20027;-82
2022/07/18 00:46:57;;;;;;;1.58;1.40;;;;;;;;;;5114503;28;20057;-81
2022/07/18 00:49:23;;;;;;;2.45;1.42;;;;;;;;;;5114704;28;20520;-82
2022/07/18 00:51:49;;;;;;;3.00;1.65;;;;;;;;;;5114402;28;20411;-81
2022/07/18 00:54:16;;;;;;;2.50;1.25;;;;;;;;;;5114545;28;20024;-79
2022/07/18 00:56:43;;;;;;;2.85;1.42;;;;;;;;;;5114265;28;20024;-82
2022/07/18 00:59:10;;;;;;;2.83;1.77;;;;;;;;;;5114485;28;20439;-81
2022/07/18 01:04:22;;;;;;;2.63;1.20;;;;;;;;;;5114485;28;20035;-79
2022/07/18 01:06:49;;;;;;;3.72;1.77;;;;;;;;;;5114068;28;20031;-81
2022/07/18 01:09:16;;;;;;;2.47;1.25;;;;;;;;;;5095914;28;20611;-79
2022/07/18 01:11:44;;;;;;;3.55;1.75;;;;;;;;;;5113833;28;20057;-82
2022/07/18 01:14:10;;;;;;;3.45;1.48;;;;;;;;;;5114059;28;20034;-83
2022/07/18 01:16:37;;;;;;;2.45;1.38;;;;;;;;;;5113890;28;20023;-80
2022/07/18 01:19:03;;;;;;;2.42;1.55;;;;;;;;;;5114177;28;20020;-79
2022/07/18 01:21:29;;;;;;;3.33;1.50;;;;;;;;;;5113840;28;20381;-80
2022/07/18 01:23:55;;;;;;;2.50;1.40;;;;;;;;;;5095585;28;20028;-80
2022/07/18 01:26:22;;;;;;;2.88;1.45;;;;;;;;;;5113978;28;20027;-82
2022/07/18 01:28:48;;;;;;;2.65;1.52;;;;;;;;;;5113588;28;20036;-79
2022/07/18 01:31:14;;;;;;;1.98;1.33;;;;;;;;;;5113699;28;20069;-79
2022/07/18 01:33:41;;;;;;;2.38;1.38;;;;;;;;;;5113564;28;20036;-81
2022/07/18 01:36:07;;;;;;;3.55;1.95;;;;;;;;;;5113758;28;20070;-82
2022/07/18 01:38:34;;;;;;;2.10;1.33;;;;;;;;;;5113514;28;20367;-80
2022/07/18 01:41:00;;;;;;;2.85;1.70;;;;;;;;;;5113535;28;20111;-83
2022/07/18 01:43:27;;;;;;;2.88;1.83;;;;;;;;;;5113613;28;20034;-83
2022/07/18 01:45:54;;;;;;;1.80;1.42;;;;;;;;;;5113400;28;20034;-85
2022/07/18 01:48:22;;;;;;;2.40;1.50;;;;;;;;;;5113446;28;20478;-83
2022/07/18 01:50:48;;;;;;;3.20;1.17;;;;;;;;;;5094788;28;20107;-82
2022/07/18 01:53:14;;;;;;;2.30;1.38;;;;;;;;;;5095022;28;20501;-81
2022/07/18 01:55:40;;;;;;;2.30;1.30;;;;;;;;;;5113140;28;20066;-84
2022/07/18 01:58:06;;;;;;;2.38;1.30;;;;;;;;;;5113394;28;20077;-81
2022/07/18 02:00:33;;;;;;;2.45;1.30;;;;;;;;;;5113289;28;20080;-80
2022/07/18 02:02:59;;;;;;;2.92;1.30;;;;;;;;;;5094679;28;20084;-81
2022/07/18 02:05:25;;;;;;;1.60;1.27;;;;;;;;;;5113235;28;20104;-82
2022/07/18 02:07:51;;;;;;;2.40;1.15;;;;;;;;;;5112855;28;20443;-82
2022/07/18 02:10:18;;;;;;;2.60;1.42;;;;;;;;;;5113045;28;20101;-84
2022/07/18 02:12:44;;;;;;;2.97;1.48;;;;;;;;;;5112909;28;20020;-84
2022/07/18 02:15:11;;;;;;;2.40;1.10;;;;;;;;;;5113090;28;20107;-83
2022/07/18 02:17:38;;;;;;;2.42;1.30;;;;;;;;;;5112799;28;20023;-78
2022/07/18 02:20:07;;;;;;;2.70;1.58;;;;;;;;;;5112880;28;20633;-83
2022/07/18 02:22:34;;;;;;;2.65;1.50;;;;;;;;;;5112871;28;20089;-76
2022/07/18 02:25:00;;;;;;;1.90;1.30;;;;;;;;;;5112951;28;20028;-80
2022/07/18 02:27:26;;;;;;;1.35;1.23;;;;;;;;;;5112935;28;20031;-80
2022/07/18 02:29:52;;;;;;;1.95;1.40;;;;;;;;;;5112108;28;20052;-80
2022/07/18 02:32:19;;;;;;;2.42;1.20;;;;;;;;;;5112847;28;20024;-80
2022/07/18 02:34:45;;;;;;;3.75;1.40;;;;;;;;;;5112691;28;20016;-81
2022/07/18 02:37:11;;;;;;;2.78;1.38;;;;;;;;;;5113125;28;20413;-81
2022/07/18 02:39:37;;;;;;;1.65;1.30;;;;;;;;;;5094691;28;20110;-80
2022/07/18 02:42:04;;;;;;;1.88;1.30;;;;;;;;;;5112472;28;20039;-81
2022/07/18 02:44:30;;;;;;;3.00;1.63;;;;;;;;;;5112760;28;20432;-83
2022/07/18 02:46:56;;;;;;;3.33;1.50;;;;;;;;;;5112481;28;20024;-86
2022/07/18 02:49:28;;;;;;;1.98;1.20;;;;;;;;;;5112838;28;20020;-82
2022/07/18 02:51:59;;;;;;;1.90;1.38;;;;;;;;;;5112279;28;20103;-80
2022/07/18 02:54:26;;;;;;;2.60;1.50;;;;;;;;;;5094502;28;20389;-82
2022/07/18 02:56:52;;;;;;;2.92;1.55;;;;;;;;;;5112340;28;20023;-82
2022/07/18 02:59:19;;;;;;;3.33;1.40;;;;;;;;;;5112504;28;20051;-80
2022/07/18 03:01:45;;;;;;;2.92;1.85;;;;;;;;;;5112418;28;20042;-81
2022/07/18 03:04:11;;;;;;;9.13;2.47;;;;;;;;;;5112609;28;20077;-80
2022/07/18 03:06:37;;;;;;;3.03;1.50;;;;;;;;;;5112506;28;20079;-81
2022/07/18 03:09:04;;;;;;;3.17;1.67;;;;;;;;;;5112201;28;20027;-82
2022/07/18 03:11:30;;;;;;;3.53;1.83;;;;;;;;;;5112640;28;20382;-83
2022/07/18 03:13:56;;;;;;;1.88;1.25;;;;;;;;;;5112130;28;20019;-79
2022/07/18 03:16:22;;;;;;;3.35;1.52;;;;;;;;;;5112523;28;20367;-82
2022/07/18 03:18:49;;;;;;;2.42;1.50;;;;;;;;;;5112371;28;20063;-81
2022/07/18 03:21:15;;;;;;;3.28;1.55;;;;;;;;;;5112229;28;20040;-79
2022/07/18 03:23:41;;;;;;;1.50;1.30;;;;;;;;;;5112374;28;20031;-80
2022/07/18 03:26:07;;;;;;;3.05;1.20;;;;;;;;;;5112046;28;20024;-83
2022/07/18 03:28:33;;;;;;;3.10;1.70;;;;;;;;;;5112362;28;20532;-82
2022/07/18 03:30:59;;;;;;;4.22;1.40;;;;;;;;;;5111878;28;20421;-82
2022/07/18 03:33:26;;;;;;;2.88;1.83;;;;;;;;;;5112247;28;20027;-85
2022/07/18 03:35:52;;;;;;;3.40;1.30;;;;;;;;;;5112003;28;20478;-80
2022/07/18 03:38:18;;;;;;;2.60;1.42;;;;;;;;;;5112069;28;20023;-80
2022/07/18 03:40:44;;;;;;;2.15;1.50;;;;;;;;;;5113602;28;20031;-83
2022/07/18 03:43:10;;;;;;;2.60;1.25;;;;;;;;;;5115444;28;20027;-83
2022/07/18 03:45:37;;;;;;;2.05;1.35;;;;;;;;;;5115837;28;20565;-80
2022/07/18 03:48:03;;;;;;;7.45;5.13;;;;;;;;;;5115614;28;20055;-80
2022/07/18 03:50:29;;;;;;;3.17;1.75;;;;;;;;;;5115857;28;20394;-80
2022/07/18 03:52:55;;;;;;;2.83;1.58;;;;;;;;;;5115612;28;20152;-82
2022/07/18 03:55:21;;;;;;;2.28;1.45;;;;;;;;;;5115518;28;20040;-80
2022/07/18 03:57:47;;;;;;;4.75;1.85;;;;;;;;;;5115732;28;20417;-82
2022/07/18 04:00:14;;;;;;;4.90;2.38;;;;;;;;;;5115343;28;20030;-80
2022/07/18 04:02:40;;;;;;;3.08;1.88;;;;;;;;;;5097097;28;20028;-81
2022/07/18 04:05:07;;;;;;;4.47;1.60;;;;;;;;;;5096995;28;20031;-80
2022/07/18 04:07:33;;;;;;;6.68;1.50;;;;;;;;;;5097340;28;20028;-83
2022/07/18 04:09:59;;;;;;;2.90;1.10;;;;;;;;;;5115250;28;20055;-82
2022/07/18 04:12:25;;;;;;;1.52;0.95;;;;;;;;;;5115086;28;20038;-82
2022/07/18 04:14:51;;;;;;;3.33;1.42;;;;;;;;;;5115356;28;20024;-81
2022/07/18 04:17:17;;;;;;;4.68;1.17;;;;;;;;;;5115040;28;20436;-83
2022/07/18 04:19:43;;;;;;;2.10;1.25;;;;;;;;;;5115301;28;20030;-80
2022/07/18 04:22:09;;;;;;;2.53;1.17;;;;;;;;;;5114863;28;20118;-82
2022/07/18 04:24:35;;;;;;;7.25;1.75;;;;;;;;;;5096715;28;20123;-81
2022/07/18 04:27:01;;;;;;;3.47;1.20;;;;;;;;;;5114985;28;20028;-77
2022/07/18 04:29:28;;;;;;;3.10;1.08;;;;;;;;;;5114707;28;20110;-81
2022/07/18 04:31:55;;;;;;;3.17;1.08;;;;;;;;;;5114814;28;20080;-77
2022/07/18 04:34:21;;;;;;;2.65;0.85;;;;;;;;;;5114257;28;20479;-76
2022/07/18 04:36:47;;;;;;;3.78;1.60;;;;;;;;;;5114804;28;20056;-78
2022/07/18 04:39:13;;;;;;;2.00;1.10;;;;;;;;;;5114338;28;20027;-77
2022/07/18 04:41:39;;;;;;;1.40;0.80;;;;;;;;;;5114342;28;20392;-76
2022/07/18 04:44:05;;;;;;;4.05;0.90;;;;;;;;;;5114446;28;20498;-83
2022/07/18 04:46:31;;;;;;;2.38;0.90;;;;;;;;;;5114366;28;20035;-77
2022/07/18 04:48:58;;;;;;;4.47;2.08;;;;;;;;;;5114422;28;20036;-76
2022/07/18 04:51:24;;;;;;;4.25;1.20;;;;;;;;;;5113608;28;20085;-79
2022/07/18 04:53:50;;;;;;;3.15;1.00;;;;;;;;;;5113970;28;20063;-78
2022/07/18 04:56:16;;;;;;;2.10;1.00;;;;;;;;;;5114217;28;20035;-77
2022/07/18 04:58:42;;;;;;;1.85;0.80;;;;;;;;;;5114034;28;20028;-76
2022/07/18 05:01:08;;;;;;;4.35;1.20;;;;;;;;;;5114227;28;20050;-80
2022/07/18 05:03:34;;;;;;;1.80;1.00;;;;;;;;;;5114032;28;20062;-80
2022/07/18 05:06:00;;;;;;;1.60;1.13;;;;;;;;;;5114235;28;20028;-81
2022/07/18 05:08:26;;;;;;;2.40;0.90;;;;;;;;;;5113859;28;20468;-77
2022/07/18 05:10:52;;;;;;;2.45;1.35;;;;;;;;;;5113869;28;20053;-77
2022/07/18 05:13:18;;;;;;;2.00;1.27;;;;;;;;;;5113711;28;20437;-76
2022/07/18 05:15:44;;;;;;;2.97;1.40;;;;;;;;;;5113582;28;20542;-78
2022/07/18 05:18:11;;;;;;;8.38;1.52;;;;;;;;;;5113572;28;20487;-78
2022/07/18 05:20:37;;;;;;;2.63;1.17;;;;;;;;;;5113424;28;20027;-83
2022/07/18 05:23:03;;;;;;;1.95;0.90;;;;;;;;;;5112905;28;20035;-77
2022/07/18 05:25:29;;;;;;;3.40;1.00;;;;;;;;;;5113178;28;20034;-76
2022/07/18 05:27:55;;;;;;;2.53;0.88;;;;;;;;;;5095008;28;20399;-77
2022/07/18 05:30:22;;;;;;;2.75;1.17;;;;;;;;;;5112799;28;20131;-77
2022/07/18 05:32:49;;;;;;;1.88;1.10;;;;;;;;;;5112450;28;20107;-77
2022/07/18 05:35:18;;;;;;;1.23;0.88;;;;;;;;;;5132217;27;20027;-79
2022/07/18 05:37:44;;;;;;;1.58;0.80;;;;;;;;;;5113982;27;20023;-77
2022/07/18 05:40:11;;;;;;;4.05;1.55;;;;;;;;;;5131692;27;20489;-77
2022/07/18 05:42:37;;;;;;;2.25;0.90;;;;;;;;;;5132533;27;20505;-77
2022/07/18 05:45:04;;;;;;;4.10;3.38;;;;;;;;;;5127168;27;20016;-77
2022/07/18 05:47:30;;;;;;;4.68;1.52;;;;;;;;;;5092228;28;20566;-78
2022/07/18 05:49:56;;;;;;;2.13;0.80;;;;;;;;;;5088552;28;20554;-80
2022/07/18 05:52:22;;;;;;;2.70;0.90;;;;;;;;;;5128513;27;20070;-81
2022/07/18 05:54:49;;;;;;;1.60;0.80;;;;;;;;;;5132133;27;20039;-80
2022/07/18 05:57:15;;;;;;;2.67;1.00;;;;;;;;;;5114042;27;20071;-81
2022/07/18 05:59:41;;;;;;;6.70;1.42;;;;;;;;;;5133171;27;20485;-81
2022/07/18 06:02:07;;;;;;;3.03;1.17;;;;;;;;;;5119925;27;20032;-79
2022/07/18 06:04:33;;;;;;;5.18;1.15;;;;;;;;;;5093866;28;20542;-80
2022/07/18 06:06:59;;;;;;;3.25;0.90;;;;;;;;;;5113208;28;20378;-81
2022/07/18 06:09:30;;;;;;;3.15;0.80;;;;;;;;;;5094258;28;20023;-81
2022/07/18 06:11:59;;;;;;;3.78;0.95;;;;;;;;;;5112398;28;20043;-86
2022/07/18 06:14:28;;;;;;;6.05;1.38;;;;;;;;;;5112842;28;20451;-82
2022/07/18 06:16:54;;;;;;;1.90;0.63;;;;;;;;;;5112602;28;20028;-80
2022/07/18 06:19:24;;;;;;;1.45;0.70;;;;;;;;;;5112735;28;20031;-82
2022/07/18 06:21:51;;;;;;;2.72;0.77;;;;;;;;;;5112337;28;20062;-85
2022/07/18 06:24:17;;;;;;;2.88;0.70;;;;;;;;;;5112461;28;20032;-79
2022/07/18 06:26:43;;;;;;;2.70;1.10;;;;;;;;;;5112142;28;20024;-83
2022/07/18 06:29:10;;;;;;;2.20;0.70;;;;;;;;;;5094285;28;20383;-81
2022/07/18 06:31:39;;;;;;;1.55;0.70;;;;;;;;;;5112377;28;20043;-84
2022/07/18 06:34:06;;;;;;;3.03;0.85;;;;;;;;;;5112750;28;20639;-82
2022/07/18 06:36:32;;;;;;;1.70;0.63;;;;;;;;;;5113091;28;20024;-81
2022/07/18 06:38:58;;;;;;;1.63;0.63;;;;;;;;;;5111630;28;20055;-82
2022/07/18 06:41:24;;;;;;;3.30;0.63;;;;;;;;;;5108855;28;20843;-78
2022/07/18 06:43:51;;;;;;;3.85;1.23;;;;;;;;;;5112294;28;20061;-78
2022/07/18 06:46:17;;;;;;;1.05;0.50;;;;;;;;;;5094001;28;20028;-78
2022/07/18 06:48:43;;;;;;;1.50;0.68;;;;;;;;;;5112521;28;20484;-80
2022/07/18 06:51:09;;;;;;;2.88;1.20;;;;;;;;;;5111798;28;20053;-80
2022/07/18 06:53:35;;;;;;;2.42;0.70;;;;;;;;;;5112325;28;20765;-80
2022/07/18 06:56:05;;;;;;;2.15;0.70;;;;;;;;;;5111924;28;20032;-83
2022/07/18 06:58:31;;;;;;;4.35;0.90;;;;;;;;;;5112405;28;20041;-79
2022/07/18 07:00:57;;;;;;;1.83;0.70;;;;;;;;;;5112260;28;20019;-82
2022/07/18 07:03:24;;;;;;;7.03;6.30;;;;;;;;;;5112242;28;20106;-78
2022/07/18 07:05:50;;;;;;;3.63;1.88;;;;;;;;;;5112600;28;20435;-77
2022/07/18 07:08:16;;;;;;;2.55;0.90;;;;;;;;;;5111580;28;20024;-80
2022/07/18 07:10:42;;;;;;;2.75;0.70;;;;;;;;;;5112196;28;20485;-78
2022/07/18 07:13:10;;;;;;;2.58;1.10;;;;;;;;;;5111802;28;20058;-84
2022/07/18 07:15:36;;;;;;;3.08;0.70;;;;;;;;;;5115019;28;20114;-81
2022/07/18 07:18:02;;;;;;;5.18;4.45;;;;;;;;;;5115321;28;20028;-79
2022/07/18 07:20:28;;;;;;;1.42;0.80;;;;;;;;;;5115544;28;20042;-77
2022/07/18 07:22:56;;;;;;;2.97;0.80;;;;;;;;;;5120374;27;20031;-78
2022/07/18 07:25:23;;;;;;;1.63;0.60;;;;;;;;;;5121384;27;20081;-78
2022/07/18 07:27:49;;;;;;;4.03;1.30;;;;;;;;;;5110746;28;20024;-76
2022/07/18 07:30:15;;;;;;;2.40;0.73;;;;;;;;;;5114122;27;20043;-77
2022/07/18 07:32:43;;;;;;;2.10;0.77;;;;;;;;;;5099292;28;20042;-79
2022/07/18 07:35:15;;;;;;;2.90;1.10;;;;;;;;;;5115687;28;20536;-79
2022/07/18 07:37:43;;;;;;;1.10;0.75;;;;;;;;;;5114935;28;20144;-79
2022/07/18 07:40:09;;;;;;;0.80;0.60;;;;;;;;;;5115144;28;20077;-78
2022/07/18 07:42:36;;;;;;;1.50;0.60;;;;;;;;;;5115580;27;20130;-82
2022/07/18 07:45:02;;;;;;;3.38;2.45;;;;;;;;;;5136419;27;20027;-82
2022/07/18 07:47:32;;;;;;;4.75;1.05;;;;;;;;;;5095537;28;20042;-83
2022/07/18 07:49:59;;;;;;;2.05;0.77;;;;;;;;;;5110063;28;20031;-82
2022/07/18 07:52:25;;;;;;;2.85;0.68;;;;;;;;;;5104491;28;20082;-83
2022/07/18 07:54:51;;;;;;;2.95;0.90;;;;;;;;;;5085822;28;20051;-80
2022/07/18 07:57:23;;;;;;;1.50;0.47;;;;;;;;;;5113478;28;20084;-85
2022/07/18 07:59:49;;;;;;;1.27;0.43;;;;;;;;;;5107988;28;20126;-79
2022/07/18 08:02:16;;;;;;;3.53;0.50;;;;;;;;;;5113497;28;20032;-80
2022/07/18 08:04:42;;;;;;;1.23;0.57;;;;;;;;;;5108944;28;20020;-79
2022/07/18 08:07:09;;;;;;;1.77;1.00;;;;;;;;;;5112784;28;20031;-76
2022/07/18 08:09:35;;;;;;;0.45;0.32;;;;;;;;;;5114630;28;20031;-78
2022/07/18 08:12:01;;;;;;;1.10;0.50;;;;;;;;;;5115265;28;20154;-77
2022/07/18 08:14:27;;;;;;;1.27;0.60;;;;;;;;;;5107904;28;20032;-78
2022/07/18 08:16:53;;;;;;;1.80;0.70;;;;;;;;;;5115379;28;20112;-82
2022/07/18 08:19:19;;;;;;;2.38;0.88;;;;;;;;;;5115077;28;20027;-83
2022/07/18 08:21:45;;;;;;;1.67;0.60;;;;;;;;;;5115127;28;20032;-78
2022/07/18 08:24:12;;;;;;;2.05;0.60;;;;;;;;;;5114852;28;20073;-78
2022/07/18 08:26:39;;;;;;;1.92;0.70;;;;;;;;;;5095893;28;20043;-79
2022/07/18 08:29:05;;;;;;;1.15;0.45;;;;;;;;;;5096611;28;20031;-79
2022/07/18 08:31:31;;;;;;;2.17;0.40;;;;;;;;;;5078754;28;20135;-79
2022/07/18 08:33:58;;;;;;;2.08;1.00;;;;;;;;;;5076289;28;20111;-84
2022/07/18 08:36:24;;;;;;;1.40;0.57;;;;;;;;;;5075496;28;20035;-80
2022/07/18 08:38:50;;;;;;;2.25;0.90;;;;;;;;;;5094075;28;20035;-81
2022/07/18 08:41:17;;;;;;;3.42;0.80;;;;;;;;;;5094242;28;20028;-80
2022/07/18 08:43:45;;;;;;;0.93;0.50;;;;;;;;;;5093757;28;20020;-82
2022/07/18 08:46:12;;;;;;;0.82;0.63;;;;;;;;;;5076223;28;20036;-84
2022/07/18 08:48:40;;;;;;;4.07;1.52;;;;;;;;;;5094100;28;20463;-85
2022/07/18 08:51:06;;;;;;;0.77;0.50;;;;;;;;;;5094163;28;20467;-80
2022/07/18 08:53:33;;;;;;;10.05;6.78;;;;;;;;;;5075722;28;20046;-81
2022/07/18 08:56:02;;;;;;;3.58;2.47;;;;;;;;;;5094062;28;20081;-83
2022/07/18 08:58:29;;;;;;;5.13;1.20;;;;;;;;;;5075146;28;20028;-81
2022/07/18 09:00:57;;;;;;;4.60;1.90;;;;;;;;;;5094081;28;20395;-86
2022/07/18 09:03:26;;;;;;;1.13;0.88;;;;;;;;;;5093654;28;20047;-83
2022/07/18 09:06:13;;;;;;;1.58;0.70;;;;;;;;;;5093453;28;20088;-88
2022/07/18 09:08:59;;;;;;;3.35;0.55;;;;;;;;;;5094009;28;20020;-83
2022/07/18 09:11:25;;;;;;;2.17;0.60;;;;;;;;;;5055359;28;20055;-89
2022/07/18 09:13:55;;;;;;;1.38;0.60;;;;;;;;;;5055289;28;20032;-86
2022/07/18 09:16:21;;;;;;;1.75;0.82;;;;;;;;;;5055168;28;20032;-83
2022/07/18 09:18:49;;;;;;;2.35;0.43;;;;;;;;;;5072731;28;20036;-88
2022/07/18 09:21:20;;;;;;;1.35;0.75;;;;;;;;;;5073106;28;20025;-84
2022/07/18 09:23:50;;;;;;;3.75;0.60;;;;;;;;;;5054860;28;20025;-82
2022/07/18 09:26:35;;;;;;;0.82;0.40;;;;;;;;;;5072276;28;20471;-84
2022/07/18 09:29:06;;;;;;;1.08;0.50;;;;;;;;;;5072894;28;20120;-86
2022/07/18 09:31:32;;;;;;;2.13;0.60;;;;;;;;;;5072268;28;20056;-80
2022/07/18 09:34:00;;;;;;;1.30;0.47;;;;;;;;;;5092672;28;20040;-85
2022/07/18 09:36:36;;;;;;;1.40;0.60;;;;;;;;;;5074334;28;20510;-89
2022/07/18 09:39:17;;;;;;;0.85;0.55;;;;;;;;;;5091549;28;20505;-85
2022/07/18 09:41:43;;;;;;;1.20;0.60;;;;;;;;;;5093074;28;20043;-83
2022/07/18 09:44:15;;;;;;;2.53;0.95;;;;;;;;;;5092389;28;20099;-79
2022/07/18 09:47:02;;;;;;;2.25;0.65;;;;;;;;;;5093123;28;20027;-84
2022/07/18 09:49:32;;;;;;;0.70;0.50;;;;;;;;;;5102908;28;20141;-87
2022/07/18 09:52:26;;;;;;;1.60;0.60;;;;;;;;;;5112899;28;20036;-83
2022/07/18 09:55:03;;;;;;;1.85;0.40;;;;;;;;;;5112872;28;20031;-81
2022/07/18 09:57:29;;;;;;;1.27;0.50;;;;;;;;;;5113032;28;20030;-80
2022/07/18 09:59:56;;;;;;;2.33;0.80;;;;;;;;;;5112872;28;20617;-79
2022/07/18 10:02:27;;;;;;;1.05;0.50;;;;;;;;;;5094658;28;20023;-86
2022/07/18 10:04:55;;;;;;;0.50;0.43;;;;;;;;;;5112746;28;20070;-85
2022/07/18 10:07:21;;;;;;;1.13;0.60;;;;;;;;;;5112661;28;20092;-82
2022/07/18 10:09:47;;;;;;;1.05;0.50;;;;;;;;;;5094505;28;20080;-80
2022/07/18 10:12:15;;;;;;;1.77;0.88;;;;;;;;;;5112537;28;20028;-84
2022/07/18 10:14:41;;;;;;;1.48;0.50;;;;;;;;;;5094890;28;20379;-87
2022/07/18 10:17:07;;;;;;;1.70;0.80;;;;;;;;;;5112972;28;20552;-85
2022/07/18 10:20:00;;;;;;;1.63;0.60;;;;;;;;;;5094664;28;20169;-86
2022/07/18 10:22:26;;;;;;;3.17;0.60;;;;;;;;;;5109871;28;20046;-88
2022/07/18 10:24:53;;;;;;;2.08;0.60;;;;;;;;;;5112896;28;20030;-78
2022/07/18 10:27:22;;;;;;;1.02;0.65;;;;;;;;;;5112788;28;20032;-82
2022/07/18 10:30:07;;;;;;;1.60;0.70;;;;;;;;;;5112561;28;20097;-85
2022/07/18 10:32:33;;;;;;;1.52;0.80;;;;;;;;;;5094617;28;20533;-86
2022/07/18 10:35:00;;;;;;;1.55;0.73;;;;;;;;;;5094006;28;20527;-84
2022/07/18 10:37:26;;;;;;;2.50;1.27;;;;;;;;;;5112420;28;20111;-84
2022/07/18 10:39:54;;;;;;;1.60;0.70;;;;;;;;;;5093887;28;20028;-83
2022/07/18 10:42:24;;;;;;;1.40;0.70;;;;;;;;;;5111879;28;20122;-82
2022/07/18 10:45:02;;;;;;;2.15;0.68;;;;;;;;;;5130647;28;20023;-88
2022/07/18 10:47:29;;;;;;;1.60;0.70;;;;;;;;;;5133024;28;20102;-81
2022/07/18 10:50:01;;;;;;;1.63;0.70;;;;;;;;;;5134887;27;20031;-87
2022/07/18 10:52:27;;;;;;;4.13;0.88;;;;;;;;;;5136573;27;20034;-83
2022/07/18 10:55:03;;;;;;;1.23;0.40;;;;;;;;;;5118819;27;20497;-81
2022/07/18 10:57:37;;;;;;;1.55;0.60;;;;;;;;;;5137832;27;20156;-83
2022/07/18 11:00:12;;;;;;;1.77;0.80;;;;;;;;;;5118259;27;20027;-86
2022/07/18 11:02:46;;;;;;;2.50;0.93;;;;;;;;;;5136696;27;20041;-85
2022/07/18 11:05:31;;;;;;;6.80;1.50;;;;;;;;;;5136858;27;20785;-81
2022/07/18 11:07:57;;;;;;;6.13;3.95;;;;;;;;;;5136534;27;20481;-82
2022/07/18 11:10:47;;;;;;;1.80;0.93;;;;;;;;;;5136649;27;20023;-77
2022/07/18 11:16:10;;;;;;;2.15;1.05;;;;;;;;;;5125475;27;20039;-78
2022/07/18 11:18:55;;;;;;;5.60;1.38;;;;;;;;;;5096864;28;20085;-80
2022/07/18 11:21:33;;;;;;;1.58;0.60;;;;;;;;;;5115360;28;20016;-85
2022/07/18 11:24:02;;;;;;;1.60;0.60;;;;;;;;;;5097414;28;20444;-77
2022/07/18 11:26:29;;;;;;;3.80;0.60;;;;;;;;;;5115511;28;20496;-82
2022/07/18 11:28:58;;;;;;;23.25;9.85;;;;;;;;;;5096362;28;20035;-83
2022/07/18 11:31:25;;;;;;;80.25;34.22;;;;;;;;;;5115289;28;20047;-80
2022/07/18 11:33:51;;;;;;;9.45;3.63;;;;;;;;;;5115610;28;20478;-82
2022/07/18 11:36:21;;;;;;;6.28;2.58;;;;;;;;;;5115154;28;20098;-81
2022/07/18 11:38:49;;;;;;;19.60;8.60;;;;;;;;;;5114792;28;20028;-79
2022/07/18 11:41:18;;;;;;;4.07;1.48;;;;;;;;;;5115418;28;20036;-79
2022/07/18 11:43:45;;;;;;;4.72;1.60;;;;;;;;;;5115445;28;20471;-83
2022/07/18 11:46:15;;;;;;;66.47;29.88;;;;;;;;;;5114715;28;20061;-81
2022/07/18 11:48:41;;;;;;;36.40;15.88;;;;;;;;;;5096158;28;20028;-82
2022/07/18 11:51:34;;;;;;;15.50;7.38;;;;;;;;;;5114197;28;20034;-84
2022/07/18 11:54:00;;;;;;;24.48;9.93;;;;;;;;;;5111836;28;20067;-84
2022/07/18 11:56:26;;;;;;;6.50;2.80;;;;;;;;;;5114960;28;20026;-86
2022/07/18 11:58:52;;;;;;;3.75;1.42;;;;;;;;;;5096428;28;20550;-81
2022/07/18 12:01:19;;;;;;;4.50;1.80;;;;;;;;;;5112468;28;20664;-82
2022/07/18 12:03:54;;;;;;;2.70;1.25;;;;;;;;;;5113584;28;20110;-80
2022/07/18 12:06:21;;;;;;;3.38;1.08;;;;;;;;;;5114368;28;20036;-82
2022/07/18 12:08:56;;;;;;;1.20;0.60;;;;;;;;;;5105555;28;20379;-79
2022/07/18 12:11:35;;;;;;;2.50;0.95;;;;;;;;;;5098265;28;20138;-83
2022/07/18 12:14:08;;;;;;;9.45;8.65;;;;;;;;;;5109458;28;20019;-82
2022/07/18 12:16:34;;;;;;;11.43;10.52;;;;;;;;;;5114680;28;20048;-81
2022/07/18 12:19:02;;;;;;;1.88;1.00;;;;;;;;;;5114876;28;20026;-85
2022/07/18 12:21:45;;;;;;;1.63;0.80;;;;;;;;;;5096322;28;20031;-81
2022/07/18 12:24:30;;;;;;;2.20;1.10;;;;;;;;;;5112702;28;20168;-81
2022/07/18 12:27:18;;;;;;;2.30;0.80;;;;;;;;;;5114566;28;20039;-80
2022/07/18 12:29:58;;;;;;;1.30;0.50;;;;;;;;;;5110374;28;20151;-84
2022/07/18 12:32:25;;;;;;;2.13;0.50;;;;;;;;;;5075927;28;20562;-85
2022/07/18 12:35:00;;;;;;;0.63;0.63;;;;;;;;;;5112121;28;20141;-87
2022/07/18 12:37:27;;;;;;;1.65;0.82;;;;;;;;;;5101089;28;20367;-84
2022/07/18 12:40:00;;;;;;;10.27;4.10;;;;;;;;;;5096565;28;20486;-87
2022/07/18 12:42:33;;;;;;;47.17;21.13;;;;;;;;;;5111250;28;20058;-81
2022/07/18 12:44:59;;;;;;;124.63;51.97;;;;;;;;;;5114177;28;20024;-81
2022/07/18 12:47:29;;;;;;;68.60;29.20;;;;;;;;;;5112456;28;20019;-81
2022/07/18 12:49:55;;;;;;;5.57;2.67;;;;;;;;;;5113184;28;20116;-80
2022/07/18 12:52:21;;;;;;;12.15;5.13;;;;;;;;;;5112366;28;20127;-81
2022/07/18 12:54:50;;;;;;;20.85;7.50;;;;;;;;;;5112463;28;20035;-87
2022/07/18 12:57:16;;;;;;;3.90;1.05;;;;;;;;;;5078628;28;20027;-78
2022/07/18 12:59:43;;;;;;;16.33;3.80;;;;;;;;;;5113392;28;20028;-81
2022/07/18 13:02:09;;;;;;;9.60;4.32;;;;;;;;;;5111382;28;20257;-82
2022/07/18 13:04:35;;;;;;;4.55;1.95;;;;;;;;;;5113132;28;20020;-82
2022/07/18 13:07:01;;;;;;;1.88;0.98;;;;;;;;;;5112266;28;20023;-80
2022/07/18 13:09:27;;;;;;;3.72;1.02;;;;;;;;;;5112746;28;20050;-78
2022/07/18 13:11:53;;;;;;;11.98;8.82;;;;;;;;;;5110984;28;20020;-79
2022/07/18 13:14:20;;;;;;;35.42;32.42;;;;;;;;;;5109330;28;20456;-79
2022/07/18 13:16:48;;;;;;;2.25;1.00;;;;;;;;;;5106910;28;20073;-77
2022/07/18 13:19:15;;;;;;;2.20;0.60;;;;;;;;;;5112871;28;20028;-76
2022/07/18 13:21:42;;;;;;;1.30;0.57;;;;;;;;;;5113823;28;20026;-79
2022/07/18 13:24:08;;;;;;;1.58;0.60;;;;;;;;;;5094277;28;20512;-76
2022/07/18 13:26:34;;;;;;;1.00;0.65;;;;;;;;;;5110937;28;20448;-79
2022/07/18 13:29:01;;;;;;;0.82;0.55;;;;;;;;;;5110239;28;20073;-77
2022/07/18 13:31:27;;;;;;;1.00;0.50;;;;;;;;;;5112773;28;20466;-77
2022/07/18 13:33:53;;;;;;;1.70;0.60;;;;;;;;;;5113127;28;20024;-79
2022/07/18 13:36:20;;;;;;;2.13;0.68;;;;;;;;;;5100801;28;20027;-79
2022/07/18 13:38:47;;;;;;;0.82;0.38;;;;;;;;;;5099750;28;20032;-80
2022/07/18 13:41:13;;;;;;;1.80;0.60;;;;;;;;;;5112112;28;20051;-78
2022/07/18 13:43:40;;;;;;;1.35;0.60;;;;;;;;;;5113176;28;20043;-78
2022/07/18 13:46:10;;;;;;;1.80;0.50;;;;;;;;;;5094903;28;20028;-77
2022/07/18 13:48:36;;;;;;;2.42;0.65;;;;;;;;;;5112617;28;20102;-77
2022/07/18 13:51:03;;;;;;;1.40;0.70;;;;;;;;;;5112597;28;20485;-76
2022/07/18 13:53:29;;;;;;;1.83;0.52;;;;;;;;;;5112199;28;20122;-78
2022/07/18 13:55:55;;;;;;;2.13;0.65;;;;;;;;;;5112605;28;20486;-77
2022/07/18 13:58:21;;;;;;;1.50;0.50;;;;;;;;;;5111909;28;20035;-78
2022/07/18 14:00:48;;;;;;;2.03;0.70;;;;;;;;;;5111814;28;20492;-76
2022/07/18 14:03:14;;;;;;;1.48;0.82;;;;;;;;;;5092515;28;20089;-77
2022/07/18 14:05:40;;;;;;;0.88;0.55;;;;;;;;;;5112150;28;20031;-76
2022/07/18 14:08:07;;;;;;;0.80;0.52;;;;;;;;;;5111914;28;20045;-78
2022/07/18 14:10:33;;;;;;;1.20;0.47;;;;;;;;;;5112148;28;20103;-77
2022/07/18 14:12:59;;;;;;;2.05;0.70;;;;;;;;;;5111754;28;20028;-77
2022/07/18 14:15:25;;;;;;;3.17;0.85;;;;;;;;;;5111730;28;20038;-76
2022/07/18 14:17:52;;;;;;;1.58;0.60;;;;;;;;;;5112203;28;20043;-76
2022/07/18 14:20:18;;;;;;;1.40;0.50;;;;;;;;;;5112063;28;20107;-77
2022/07/18 14:22:45;;;;;;;2.00;0.70;;;;;;;;;;5111180;28;20040;-77
2022/07/18 14:25:12;;;;;;;2.15;0.52;;;;;;;;;;5091494;28;20035;-79
2022/07/18 14:27:39;;;;;;;3.70;0.70;;;;;;;;;;5118387;27;20478;-76
2022/07/18 14:30:06;;;;;;;1.40;0.63;;;;;;;;;;5115781;27;20055;-77
2022/07/18 14:32:32;;;;;;;1.63;0.65;;;;;;;;;;5104763;28;20039;-78
2022/07/18 14:34:58;;;;;;;1.40;0.70;;;;;;;;;;5108827;28;20032;-77
2022/07/18 14:37:24;;;;;;;2.58;0.68;;;;;;;;;;5104453;28;20035;-79
2022/07/18 14:39:51;;;;;;;1.40;0.68;;;;;;;;;;5103017;28;20047;-81
2022/07/18 14:42:17;;;;;;;1.27;0.55;;;;;;;;;;5112169;28;20040;-79
2022/07/18 14:44:43;;;;;;;3.53;0.65;;;;;;;;;;5112271;28;20098;-76
2022/07/18 14:47:09;;;;;;;2.08;0.50;;;;;;;;;;5112006;28;20053;-81
2022/07/18 14:49:35;;;;;;;1.08;0.70;;;;;;;;;;5111950;28;20028;-80
2022/07/18 14:52:01;;;;;;;1.83;0.60;;;;;;;;;;5111879;28;20024;-81